createdAt,value
2019-05-14T00:00:07.309Z,2.10
2019-05-14T00:02:35.673Z,1.97
2019-05-14T00:05:03.318Z,1.90
2019-05-14T00:07:32.096Z,1.77
2019-05-14T00:10:01.193Z,1.80
2019-05-14T00:12:31.361Z,1.60
2019-05-14T00:14:59.360Z,1.63
2019-05-14T00:17:27.686Z,1.80
2019-05-14T00:20:06.497Z,1.70
2019-05-14T00:22:25.375Z,1.57
2019-05-14T00:24:53.287Z,1.77
2019-05-14T00:27:21.846Z,1.53
2019-05-14T00:29:51.865Z,1.80
2019-05-14T00:32:21.553Z,1.47
2019-05-14T00:34:51.357Z,1.90
2019-05-14T00:37:21.560Z,1.57
2019-05-14T00:39:48.989Z,1.60
2019-05-14T00:42:17.217Z,1.60
2019-05-14T00:44:54.454Z,1.40
2019-05-14T00:47:15.249Z,1.30
2019-05-14T00:49:43.263Z,1.50
2019-05-14T00:52:12.016Z,1.70
2019-05-14T00:54:41.609Z,1.53
2019-05-14T00:57:11.587Z,1.60
2019-05-14T00:59:41.457Z,1.53
2019-05-14T01:02:11.411Z,1.50
2019-05-14T01:04:39.034Z,1.57
2019-05-14T01:07:07.685Z,1.60
2019-05-14T01:09:35.688Z,1.27
2019-05-14T01:12:03.894Z,1.50
2019-05-14T01:14:31.997Z,1.60
2019-05-14T01:17:02.070Z,1.60
2019-05-14T01:19:31.508Z,1.63
2019-05-14T01:22:01.541Z,1.20
2019-05-14T01:24:28.817Z,1.53
2019-05-14T01:26:56.559Z,1.60
2019-05-14T01:29:24.634Z,1.53
2019-05-14T01:31:52.440Z,1.40
2019-05-14T01:34:21.620Z,1.60
2019-05-14T01:36:50.228Z,1.30
2019-05-14T01:39:17.893Z,1.40
2019-05-14T01:41:45.949Z,1.30
2019-05-14T01:44:14.281Z,1.70
2019-05-14T01:46:42.618Z,1.37
2019-05-14T01:49:12.031Z,1.50
2019-05-14T01:51:42.332Z,1.30
2019-05-14T01:54:11.977Z,1.40
2019-05-14T01:56:42.347Z,1.50
2019-05-14T01:59:11.906Z,1.43
2019-05-14T02:01:41.467Z,1.50
2019-05-14T02:04:11.692Z,1.50
2019-05-14T02:06:41.300Z,1.40
2019-05-14T02:09:11.116Z,1.30
2019-05-14T02:11:41.290Z,1.70
2019-05-14T02:14:11.534Z,1.40
2019-05-14T02:16:39.207Z,1.50
2019-05-14T02:19:07.228Z,1.30
2019-05-14T02:21:34.876Z,1.60
2019-05-14T02:24:03.028Z,1.60
2019-05-14T02:26:31.682Z,1.50
2019-05-14T02:29:01.805Z,1.30
2019-05-14T02:31:29.353Z,1.40
2019-05-14T02:33:59.082Z,1.40
2019-05-14T02:36:30.646Z,1.57
2019-05-14T02:39:00.321Z,1.83
2019-05-14T02:41:29.905Z,1.47
2019-05-14T02:43:59.411Z,1.40
2019-05-14T02:46:29.249Z,1.50
2019-05-14T02:48:59.291Z,1.50
2019-05-14T02:51:25.942Z,1.40
2019-05-14T02:53:54.269Z,1.90
2019-05-14T02:56:22.680Z,1.60
2019-05-14T02:58:50.702Z,1.83
2019-05-14T03:01:20.096Z,1.60
2019-05-14T03:03:49.507Z,1.70
2019-05-14T03:06:20.136Z,1.60
2019-05-14T03:08:49.395Z,1.87
2019-05-14T03:11:19.815Z,1.93
2019-05-14T03:13:49.471Z,2.07
2019-05-14T03:16:25.967Z,2.20
2019-05-14T03:18:46.263Z,1.93
2019-05-14T03:21:14.183Z,1.90
2019-05-14T03:23:41.964Z,1.80
2019-05-14T03:26:09.896Z,1.40
2019-05-14T03:28:39.898Z,1.30
2019-05-14T03:31:12.229Z,1.63
2019-05-14T03:33:43.117Z,1.70
2019-05-14T03:36:15.100Z,1.70
2019-05-14T03:38:39.437Z,1.83
2019-05-14T03:41:09.093Z,1.77
2019-05-14T03:43:39.048Z,1.40
2019-05-14T03:46:09.478Z,1.70
2019-05-14T03:48:36.095Z,1.50
2019-05-14T03:51:03.843Z,1.60
2019-05-14T03:53:31.557Z,2.00
2019-05-14T03:56:00.097Z,1.80
2019-05-14T03:58:29.961Z,1.90
2019-05-14T04:01:00.876Z,1.63
2019-05-14T04:03:29.748Z,1.80
2019-05-14T04:05:59.356Z,1.77
2019-05-14T04:08:29.365Z,1.60
2019-05-14T04:10:59.311Z,1.60
2019-05-14T04:13:30.295Z,1.60
2019-05-14T04:16:00.494Z,1.60
2019-05-14T04:18:29.654Z,1.43
2019-05-14T04:20:59.335Z,1.60
2019-05-14T04:23:29.002Z,1.60
2019-05-14T04:26:00.240Z,1.67
2019-05-14T04:28:29.853Z,1.67
2019-05-14T04:30:59.699Z,1.70
2019-05-14T04:33:30.325Z,1.73
2019-05-14T04:35:59.975Z,1.60
2019-05-14T04:38:29.861Z,1.60
2019-05-14T04:40:59.737Z,1.60
2019-05-14T04:43:29.337Z,1.83
2019-05-14T04:45:59.133Z,1.60
2019-05-14T04:48:36.312Z,2.00
2019-05-14T04:51:00.519Z,2.00
2019-05-14T04:53:30.892Z,2.20
2019-05-14T04:56:00.044Z,2.13
2019-05-14T04:58:29.752Z,2.47
2019-05-14T05:01:00.118Z,2.53
2019-05-14T05:03:30.325Z,2.80
2019-05-14T05:05:58.735Z,2.90
2019-05-14T05:08:25.897Z,2.87
2019-05-14T05:10:54.173Z,2.77
2019-05-14T05:13:22.387Z,3.20
2019-05-14T05:15:50.451Z,3.70
2019-05-14T05:18:18.850Z,3.20
2019-05-14T05:20:50.239Z,3.13
2019-05-14T05:23:18.933Z,3.03
2019-05-14T05:25:48.916Z,3.00
2019-05-14T05:28:18.902Z,3.20
2019-05-14T05:30:46.312Z,3.57
2019-05-14T05:33:14.432Z,3.37
2019-05-14T05:35:42.502Z,4.17
2019-05-14T05:38:10.152Z,3.50
2019-05-14T05:40:39.157Z,3.80
2019-05-14T05:43:08.924Z,4.23
2019-05-14T05:45:38.116Z,4.60
2019-05-14T05:48:08.250Z,4.73
2019-05-14T05:50:36.092Z,4.53
2019-05-14T05:53:04.443Z,5.00
2019-05-14T05:55:32.792Z,4.70
2019-05-14T05:58:00.780Z,4.30
2019-05-14T06:00:32.657Z,4.80
2019-05-14T06:03:00.584Z,5.30
2019-05-14T06:05:29.353Z,4.50
2019-05-14T06:07:58.984Z,4.50
2019-05-14T06:10:29.131Z,4.73
2019-05-14T06:12:58.555Z,4.67
2019-05-14T06:15:40.834Z,5.37
2019-05-14T06:18:11.577Z,5.20
2019-05-14T06:20:28.210Z,5.37
2019-05-14T06:22:56.100Z,5.07
2019-05-14T06:25:24.070Z,5.30
2019-05-14T06:27:51.740Z,5.10
2019-05-14T06:30:30.192Z,5.20
2019-05-14T06:32:59.403Z,5.43
2019-05-14T06:35:28.496Z,5.50
2019-05-14T06:37:58.237Z,4.63
2019-05-14T06:40:28.714Z,5.00
2019-05-14T06:42:56.084Z,5.20
2019-05-14T06:45:23.719Z,5.30
2019-05-14T06:47:52.304Z,5.10
2019-05-14T06:50:20.229Z,5.80
2019-05-14T06:52:49.212Z,5.20
2019-05-14T06:55:18.203Z,5.50
2019-05-14T06:57:48.064Z,5.33
2019-05-14T07:00:18.821Z,5.30
2019-05-14T07:02:48.999Z,5.20
2019-05-14T07:05:18.846Z,5.20
2019-05-14T07:07:49.098Z,5.30
2019-05-14T07:10:16.353Z,5.40
2019-05-14T07:12:44.710Z,5.60
2019-05-14T07:15:12.657Z,5.93
2019-05-14T07:17:40.975Z,5.90
2019-05-14T07:20:09.139Z,5.43
2019-05-14T07:22:38.987Z,5.27
2019-05-14T07:25:09.789Z,5.03
2019-05-14T07:27:39.261Z,5.50
2019-05-14T07:30:08.986Z,5.70
2019-05-14T07:32:39.541Z,5.07
2019-05-14T07:35:08.926Z,6.10
2019-05-14T07:37:39.331Z,4.93
2019-05-14T07:40:08.465Z,5.43
2019-05-14T07:42:38.274Z,4.87
2019-05-14T07:45:06.360Z,5.40
2019-05-14T07:47:33.997Z,5.50
2019-05-14T07:50:02.926Z,4.70
2019-05-14T07:52:31.257Z,4.90
2019-05-14T07:54:58.893Z,4.77
2019-05-14T07:57:28.449Z,4.40
2019-05-14T07:59:58.670Z,3.93
2019-05-14T08:02:25.760Z,4.70
2019-05-14T08:04:53.714Z,4.40
2019-05-14T08:07:22.589Z,4.20
2019-05-14T08:09:50.968Z,4.57
2019-05-14T08:12:19.390Z,4.37
2019-05-14T08:15:09.537Z,3.80
2019-05-14T08:17:19.035Z,4.17
2019-05-14T08:19:48.958Z,4.50
2019-05-14T08:22:18.475Z,4.20
2019-05-14T08:24:48.854Z,3.30
2019-05-14T08:27:19.024Z,3.03
2019-05-14T08:29:48.719Z,3.20
2019-05-14T08:32:18.905Z,3.40
2019-05-14T08:34:47.982Z,3.10
2019-05-14T08:37:15.662Z,2.80
2019-05-14T08:39:43.346Z,3.23
2019-05-14T08:42:11.666Z,3.03
2019-05-14T08:44:39.706Z,2.80
2019-05-14T08:47:09.586Z,2.80
2019-05-14T08:49:45.383Z,2.97
2019-05-14T08:52:08.804Z,3.30
2019-05-14T08:54:38.890Z,2.80
2019-05-14T08:57:09.343Z,2.83
2019-05-14T08:59:39.342Z,3.27
2019-05-14T09:02:10.212Z,3.00
2019-05-14T09:04:41.895Z,3.03
2019-05-14T09:07:09.356Z,2.90
2019-05-14T09:09:38.259Z,3.00
2019-05-14T09:12:12.168Z,2.73
2019-05-14T09:14:35.661Z,2.80
2019-05-14T09:17:03.559Z,2.90
2019-05-14T09:19:31.458Z,3.40
2019-05-14T09:21:59.463Z,2.90
2019-05-14T09:24:29.229Z,2.70
2019-05-14T09:26:59.229Z,3.00
2019-05-14T09:29:29.838Z,2.50
2019-05-14T09:31:58.901Z,2.40
2019-05-14T09:34:28.809Z,2.90
2019-05-14T09:36:59.185Z,2.93
2019-05-14T09:39:26.171Z,2.80
2019-05-14T09:41:53.796Z,2.60
2019-05-14T09:44:21.446Z,2.57
2019-05-14T09:46:50.025Z,2.37
2019-05-14T09:49:18.726Z,2.93
2019-05-14T09:51:48.881Z,2.30
2019-05-14T09:54:19.254Z,2.30
2019-05-14T09:56:48.559Z,2.40
2019-05-14T09:59:18.402Z,2.47
2019-05-14T10:01:45.701Z,2.37
2019-05-14T10:04:13.973Z,2.40
2019-05-14T10:06:41.653Z,2.40
2019-05-14T10:09:10.329Z,2.13
2019-05-14T10:11:38.466Z,2.67
2019-05-14T10:14:07.983Z,2.40
2019-05-14T10:16:38.384Z,2.10
2019-05-14T10:19:06.266Z,2.00
2019-05-14T10:21:34.357Z,2.17
2019-05-14T10:24:02.756Z,2.20
2019-05-14T10:26:31.018Z,2.50
2019-05-14T10:28:59.173Z,2.30
2019-05-14T10:31:28.980Z,2.40
2019-05-14T10:33:58.888Z,1.90
2019-05-14T10:36:29.815Z,2.03
2019-05-14T10:38:58.657Z,2.17
2019-05-14T10:41:25.802Z,2.30
2019-05-14T10:43:53.895Z,2.00
2019-05-14T10:46:21.914Z,2.30
2019-05-14T10:48:49.922Z,2.20
2019-05-14T10:51:18.212Z,2.17
2019-05-14T10:53:48.533Z,2.27
2019-05-14T10:56:18.771Z,2.13
2019-05-14T10:58:48.899Z,2.00
2019-05-14T11:01:20.647Z,2.30
2019-05-14T11:03:48.234Z,2.20
2019-05-14T11:06:15.282Z,2.00
2019-05-14T11:08:43.217Z,2.10
2019-05-14T11:11:11.534Z,2.00
2019-05-14T11:13:39.861Z,2.20
2019-05-14T11:16:08.618Z,2.27
2019-05-14T11:18:39.607Z,2.10
2019-05-14T11:21:19.756Z,2.17
2019-05-14T11:23:38.639Z,2.20
2019-05-14T11:26:09.019Z,2.07
2019-05-14T11:28:36.255Z,2.10
2019-05-14T11:31:04.274Z,2.30
2019-05-14T11:33:32.928Z,2.00
2019-05-14T11:36:01.296Z,2.20
2019-05-14T11:38:36.961Z,2.17
2019-05-14T11:40:58.892Z,2.20
2019-05-14T11:43:28.717Z,2.63
2019-05-14T11:45:59.378Z,2.60
2019-05-14T11:48:27.191Z,2.07
2019-05-14T11:50:54.851Z,2.00
2019-05-14T11:53:23.127Z,2.13
2019-05-14T11:55:51.709Z,2.20
2019-05-14T11:58:21.271Z,2.97
2019-05-14T12:00:49.132Z,2.50
2019-05-14T12:03:19.674Z,2.17
2019-05-14T12:05:49.564Z,2.27
2019-05-14T12:08:18.616Z,2.10
2019-05-14T12:10:46.920Z,2.03
2019-05-14T12:13:14.604Z,2.20
2019-05-14T12:15:42.569Z,1.83
2019-05-14T12:18:10.886Z,1.97
2019-05-14T12:20:39.638Z,1.80
2019-05-14T12:23:08.922Z,1.80
2019-05-14T12:25:37.399Z,1.80
2019-05-14T12:28:05.511Z,1.80
2019-05-14T12:30:33.506Z,1.83
2019-05-14T12:33:01.188Z,1.90
2019-05-14T12:35:29.439Z,1.80
2019-05-14T12:37:58.564Z,2.00
2019-05-14T12:40:28.882Z,1.80
2019-05-14T12:42:59.068Z,1.83
2019-05-14T12:45:25.785Z,1.80
2019-05-14T12:47:53.774Z,2.03
2019-05-14T12:50:21.853Z,2.00
2019-05-14T12:52:49.639Z,2.40
2019-05-14T12:55:19.540Z,2.00
2019-05-14T12:57:48.608Z,2.20
2019-05-14T13:00:16.721Z,1.93
2019-05-14T13:02:44.689Z,1.90
2019-05-14T13:05:12.867Z,2.00
2019-05-14T13:07:41.809Z,2.07
2019-05-14T13:10:09.983Z,2.40
2019-05-14T13:12:39.180Z,1.90
2019-05-14T13:15:08.764Z,1.90
2019-05-14T13:17:38.595Z,2.00
2019-05-14T13:20:13.209Z,2.17
2019-05-14T13:22:45.337Z,1.90
2019-05-14T13:25:09.101Z,1.80
2019-05-14T13:27:35.846Z,2.03
2019-05-14T13:30:03.737Z,1.60
2019-05-14T13:32:31.656Z,1.70
2019-05-14T13:34:59.862Z,1.60
2019-05-14T13:37:28.822Z,1.90
2019-05-14T13:39:59.211Z,2.00
2019-05-14T13:42:26.435Z,2.10
2019-05-14T13:44:54.573Z,1.67
2019-05-14T13:47:30.366Z,1.70
2019-05-14T13:49:59.284Z,1.80
2019-05-14T13:52:29.272Z,2.00
2019-05-14T13:54:57.031Z,1.90
2019-05-14T13:57:25.348Z,1.60
2019-05-14T13:59:54.422Z,2.00
2019-05-14T14:02:28.004Z,2.00
2019-05-14T14:04:59.002Z,1.70
2019-05-14T14:07:27.559Z,2.00
2019-05-14T14:09:55.776Z,2.00
2019-05-14T14:12:25.301Z,1.90
2019-05-14T14:14:53.061Z,1.70
2019-05-14T14:17:21.251Z,2.07
2019-05-14T14:19:50.559Z,1.80
2019-05-14T14:25:17.855Z,2.20
2019-05-14T14:27:48.537Z,2.00
2019-05-14T14:30:15.766Z,1.80
2019-05-14T14:32:44.359Z,1.70
2019-05-14T14:35:12.794Z,1.73
2019-05-14T14:37:40.477Z,1.93
2019-05-14T14:40:10.017Z,2.00
2019-05-14T14:42:40.062Z,1.60
2019-05-14T14:45:08.583Z,1.60
2019-05-14T14:47:39.087Z,2.00
2019-05-14T14:50:08.369Z,1.97
2019-05-14T14:52:36.100Z,1.93
2019-05-14T14:55:04.294Z,1.77
2019-05-14T14:57:32.271Z,1.90
2019-05-14T15:00:00.269Z,1.90
2019-05-14T15:02:28.964Z,1.80
2019-05-14T15:04:59.594Z,1.60
2019-05-14T15:07:29.720Z,1.60
2019-05-14T15:09:59.446Z,1.60
2019-05-14T15:12:28.885Z,1.83
2019-05-14T15:14:55.430Z,2.00
2019-05-14T15:17:23.658Z,1.73
2019-05-14T15:19:51.656Z,2.20
2019-05-14T15:22:21.024Z,1.63
2019-05-14T15:24:49.681Z,1.87
2019-05-14T15:27:18.883Z,1.50
2019-05-14T15:29:48.896Z,1.60
2019-05-14T15:32:19.623Z,1.60
2019-05-14T15:34:50.319Z,1.53
2019-05-14T15:37:18.886Z,2.33
2019-05-14T15:39:48.894Z,1.63
2019-05-14T15:42:19.085Z,1.77
2019-05-14T15:44:52.065Z,1.70
2019-05-14T15:47:15.653Z,1.70
2019-05-14T15:49:43.955Z,1.80
2019-05-14T15:52:12.130Z,1.73
2019-05-14T15:54:46.892Z,1.50
2019-05-14T15:57:09.694Z,1.50
2019-05-14T15:59:39.179Z,1.77
2019-05-14T16:02:09.374Z,1.40
2019-05-14T16:04:38.769Z,1.50
2019-05-14T16:07:09.258Z,1.40
2019-05-14T16:09:39.607Z,1.70
2019-05-14T16:12:09.592Z,1.40
2019-05-14T16:14:38.748Z,1.77
2019-05-14T16:17:11.279Z,1.70
2019-05-14T16:19:39.209Z,1.60
2019-05-14T16:22:09.720Z,1.67
2019-05-14T16:25:05.292Z,1.73
2019-05-14T16:27:33.407Z,1.90
2019-05-14T16:30:15.548Z,1.50
2019-05-14T16:32:43.596Z,1.60
2019-05-14T16:35:11.591Z,1.40
2019-05-14T16:37:39.548Z,1.43
2019-05-14T16:40:07.953Z,1.60
2019-05-14T16:42:35.881Z,1.77
2019-05-14T16:45:03.843Z,1.73
2019-05-14T16:47:31.869Z,1.67
2019-05-14T16:49:59.953Z,1.37
2019-05-14T16:52:28.675Z,1.37
2019-05-14T16:55:17.339Z,1.70
2019-05-14T16:57:29.145Z,1.53
2019-05-14T16:59:58.416Z,1.60
2019-05-14T17:02:29.423Z,1.53
2019-05-14T17:04:56.129Z,1.43
2019-05-14T17:07:24.390Z,1.70
2019-05-14T17:09:52.776Z,1.70
2019-05-14T17:12:22.867Z,1.50
2019-05-14T17:14:50.688Z,1.83
2019-05-14T17:17:20.138Z,1.80
2019-05-14T17:19:48.180Z,1.40
2019-05-14T17:22:27.678Z,1.30
2019-05-14T17:24:48.986Z,1.50
2019-05-14T17:27:16.087Z,1.40
2019-05-14T17:29:44.062Z,1.50
2019-05-14T17:32:12.325Z,1.40
2019-05-14T17:34:40.087Z,1.40
2019-05-14T17:37:08.955Z,1.30
2019-05-14T17:39:38.749Z,1.20
2019-05-14T17:42:11.407Z,1.10
2019-05-14T17:44:41.233Z,1.30
2019-05-14T17:47:09.295Z,1.40
2019-05-14T17:49:39.137Z,1.40
2019-05-14T17:52:06.846Z,1.57
2019-05-14T17:54:34.830Z,1.50
2019-05-14T17:57:08.290Z,1.40
2019-05-14T17:59:38.800Z,1.30
2019-05-14T18:02:05.686Z,1.37
2019-05-14T18:04:33.597Z,1.23
2019-05-14T18:07:01.261Z,1.50
2019-05-14T18:09:29.510Z,1.17
2019-05-14T18:11:58.623Z,1.40
2019-05-14T18:14:28.379Z,1.60
2019-05-14T18:17:00.641Z,1.30
2019-05-14T18:19:29.101Z,1.30
2019-05-14T18:21:59.304Z,1.30
2019-05-14T18:24:35.170Z,1.37
2019-05-14T18:27:03.036Z,1.20
2019-05-14T18:29:30.701Z,1.60
2019-05-14T18:32:01.114Z,1.50
2019-05-14T18:34:28.406Z,1.30
2019-05-14T18:37:00.147Z,1.40
2019-05-14T18:39:28.347Z,1.30
2019-05-14T18:42:00.313Z,1.33
2019-05-14T18:44:28.441Z,1.20
2019-05-14T18:46:59.206Z,1.23
2019-05-14T18:49:28.644Z,1.50
2019-05-14T18:51:56.183Z,1.40
2019-05-14T18:54:24.290Z,1.40
2019-05-14T18:56:52.438Z,1.30
2019-05-14T18:59:21.603Z,1.60
2019-05-14T19:01:53.691Z,1.30
2019-05-14T19:04:19.957Z,1.23
2019-05-14T19:06:48.274Z,1.40
2019-05-14T19:09:18.419Z,1.50
2019-05-14T19:11:48.054Z,1.40
2019-05-14T19:14:18.496Z,1.50
2019-05-14T19:16:45.774Z,1.33
2019-05-14T19:19:13.795Z,1.60
2019-05-14T19:21:41.700Z,1.73
2019-05-14T19:24:09.407Z,1.47
2019-05-14T19:26:40.306Z,1.40
2019-05-14T19:29:08.689Z,1.40
2019-05-14T19:31:38.683Z,1.80
2019-05-14T19:34:08.450Z,1.50
2019-05-14T19:36:36.930Z,1.50
2019-05-14T19:39:07.738Z,1.57
2019-05-14T19:41:38.801Z,1.60
2019-05-14T19:44:05.979Z,1.30
2019-05-14T19:46:34.273Z,1.40
2019-05-14T19:49:02.202Z,1.63
2019-05-14T19:51:30.388Z,1.30
2019-05-14T19:53:58.525Z,1.40
2019-05-14T19:56:29.350Z,1.40
2019-05-14T19:58:58.173Z,1.77
2019-05-14T20:01:28.572Z,1.67
2019-05-14T20:03:55.934Z,1.67
2019-05-14T20:06:23.685Z,1.70
2019-05-14T20:08:52.113Z,1.70
2019-05-14T20:11:20.287Z,1.60
2019-05-14T20:13:48.895Z,1.60
2019-05-14T20:16:18.451Z,1.40
2019-05-14T20:18:48.629Z,1.40
2019-05-14T20:21:16.809Z,1.40
2019-05-14T20:23:44.857Z,1.90
2019-05-14T20:26:19.195Z,1.80
2019-05-14T20:29:45.082Z,1.50
2019-05-14T20:31:29.662Z,1.50
2019-05-14T20:33:59.141Z,2.00
2019-05-14T20:36:28.166Z,1.70
2019-05-14T20:38:58.776Z,1.93
2019-05-14T20:41:28.598Z,1.63
2019-05-14T20:43:55.993Z,1.70
2019-05-14T20:46:23.682Z,2.00
2019-05-14T20:48:51.876Z,1.83
2019-05-14T20:51:19.986Z,1.90
2019-05-14T20:53:48.819Z,1.90
2019-05-14T20:56:18.972Z,1.50
2019-05-14T20:58:48.185Z,2.03
2019-05-14T21:01:18.375Z,2.00
2019-05-14T21:03:48.296Z,2.10
2019-05-14T21:06:18.582Z,1.70
2019-05-14T21:08:45.647Z,2.07
2019-05-14T21:11:13.973Z,2.00
2019-05-14T21:13:43.188Z,2.30
2019-05-14T21:16:10.950Z,2.13
2019-05-14T21:18:41.175Z,2.00
2019-05-14T21:21:10.902Z,1.83
2019-05-14T21:23:38.294Z,2.17
2019-05-14T21:26:08.423Z,1.80
2019-05-14T21:28:36.175Z,1.90
2019-05-14T21:31:04.351Z,1.93
2019-05-14T21:33:33.042Z,1.90
2019-05-14T21:36:01.071Z,1.80
2019-05-14T21:38:28.744Z,1.90
2019-05-14T21:40:58.288Z,2.00
2019-05-14T21:43:28.945Z,2.00
2019-05-14T21:45:58.587Z,2.20
2019-05-14T21:48:28.725Z,1.80
2019-05-14T21:50:55.777Z,2.07
2019-05-14T21:53:24.292Z,2.40
2019-05-14T21:55:52.163Z,1.83
2019-05-14T21:58:20.140Z,1.90
2019-05-14T22:00:51.052Z,1.97
2019-05-14T22:03:20.883Z,2.03
2019-05-14T22:05:51.642Z,2.00
2019-05-14T22:08:18.769Z,1.87
2019-05-14T22:10:48.806Z,1.93
2019-05-14T22:13:18.071Z,2.07
2019-05-14T22:15:46.177Z,2.03
2019-05-14T22:18:17.934Z,1.80
2019-05-14T22:20:44.158Z,1.90
2019-05-14T22:23:12.463Z,2.10
2019-05-14T22:25:40.098Z,2.00
2019-05-14T22:28:14.935Z,1.80
2019-05-14T22:30:38.849Z,2.10
2019-05-14T22:33:08.521Z,1.83
2019-05-14T22:35:39.250Z,1.80
2019-05-14T22:38:06.310Z,1.87
2019-05-14T22:40:34.027Z,2.03
2019-05-14T22:43:02.034Z,2.07
2019-05-14T22:45:30.770Z,1.80
2019-05-14T22:47:59.115Z,2.10
2019-05-14T22:50:29.365Z,1.77
2019-05-14T22:52:58.439Z,1.80
2019-05-14T22:55:28.948Z,2.30
2019-05-14T22:57:58.971Z,2.00
2019-05-14T23:00:28.659Z,1.87
2019-05-14T23:02:56.085Z,2.10
2019-05-14T23:05:24.264Z,2.30
2019-05-14T23:07:52.682Z,1.90
2019-05-14T23:10:20.391Z,2.20
2019-05-14T23:12:48.964Z,1.70
2019-05-14T23:15:18.158Z,1.90
2019-05-14T23:17:48.041Z,1.80
2019-05-14T23:20:15.995Z,2.00
2019-05-14T23:22:43.637Z,2.13
2019-05-14T23:25:12.009Z,1.80
2019-05-14T23:27:39.749Z,1.73
2019-05-14T23:30:08.265Z,1.90
2019-05-14T23:32:38.418Z,1.67
2019-05-14T23:35:05.982Z,2.30
2019-05-14T23:37:33.905Z,2.00
2019-05-14T23:40:01.899Z,2.13
2019-05-14T23:42:29.879Z,2.00
2019-05-14T23:44:58.534Z,1.80
2019-05-14T23:47:28.749Z,2.20
2019-05-14T23:49:58.317Z,1.90
2019-05-14T23:52:25.389Z,1.87
2019-05-14T23:54:53.838Z,2.40
2019-05-14T23:57:22.093Z,2.00
2019-05-14T23:59:49.744Z,1.80
